Time;durP1;ratioP1;P1;durP2;ratioP2;P2;SDS_P1;SDS_P2;PMS_P1;PMS_P2;Temp;Humidity;BMP_temperature;BMP_pressure;BME280_temperature;BME280_humidity;BME280_pressure;Samples;Min_cycle;Max_cycle;Signal;HPM_P1;HPM_P2
2022/05/27 00:00:17;;;;;;;3.15;2.05;;;16.30;98.60;;;;;;5074959;28;20392;-43
2022/05/27 00:02:43;;;;;;;6.82;2.25;;;16.30;98.80;;;;;;5074593;28;20036;-47
2022/05/27 00:05:10;;;;;;;3.92;1.85;;;16.30;98.90;;;;;;5074520;28;20035;-42
2022/05/27 00:07:35;;;;;;;2.88;2.10;;;16.20;99.00;;;;;;5074385;28;20094;-45
2022/05/27 00:10:01;;;;;;;7.72;1.73;;;16.20;99.20;;;;;;5074377;28;20029;-42
2022/05/27 00:12:26;;;;;;;2.80;1.48;;;16.10;99.20;;;;;;5074262;28;20391;-45
2022/05/27 00:14:52;;;;;;;5.68;1.70;;;16.10;99.40;;;;;;5074167;28;20032;-45
2022/05/27 00:17:17;;;;;;;3.88;2.08;;;16.10;99.60;;;;;;5073762;28;20025;-45
2022/05/27 00:19:43;;;;;;;4.55;1.77;;;16.00;99.80;;;;;;5075852;28;20017;-43
2022/05/27 00:22:08;;;;;;;6.90;1.60;;;15.90;99.90;;;;;;5076780;28;20116;-44
2022/05/27 00:24:36;;;;;;;4.18;1.85;;;15.90;99.90;;;;;;5076602;28;20028;-42
2022/05/27 00:27:02;;;;;;;3.35;1.58;;;15.90;99.90;;;;;;5076836;28;20029;-43
2022/05/27 00:29:27;;;;;;;3.25;1.85;;;15.80;99.90;;;;;;5076213;28;20024;-44
2022/05/27 00:31:53;;;;;;;6.03;2.50;;;15.80;99.90;;;;;;5075212;28;20095;-42
2022/05/27 00:34:18;;;;;;;3.17;1.70;;;15.80;99.90;;;;;;5074776;28;20036;-42
2022/05/27 00:36:44;;;;;;;3.40;1.50;;;15.80;99.90;;;;;;5074403;28;20093;-48
2022/05/27 00:39:09;;;;;;;3.08;1.67;;;15.70;99.90;;;;;;5073711;28;20035;-44
2022/05/27 00:41:35;;;;;;;4.97;1.80;;;15.60;99.90;;;;;;5074627;28;20032;-43
2022/05/27 00:44:00;;;;;;;6.50;2.13;;;15.70;99.90;;;;;;5074245;28;20117;-43
2022/05/27 00:46:30;;;;;;;3.53;2.60;;;15.60;99.90;;;;;;5073841;28;20158;-46
2022/05/27 00:49:04;;;;;;;5.75;1.88;;;15.60;99.90;;;;;;5073904;28;20416;-44
2022/05/27 00:51:33;;;;;;;6.68;1.70;;;15.70;99.90;;;;;;5073642;28;20093;-45
2022/05/27 00:54:10;;;;;;;4.07;1.98;;;15.70;99.90;;;;;;5073849;28;20039;-44
2022/05/27 00:56:39;;;;;;;6.07;1.75;;;15.70;99.90;;;;;;5073922;28;20500;-46
2022/05/27 00:59:18;;;;;;;2.60;1.85;;;15.70;99.90;;;;;;5073498;28;20039;-46
2022/05/27 01:01:44;;;;;;;7.15;2.05;;;15.60;99.90;;;;;;5073606;28;20028;-45
2022/05/27 01:04:11;;;;;;;8.68;5.00;;;15.60;99.90;;;;;;5073273;28;20048;-44
2022/05/27 01:06:37;;;;;;;6.03;3.38;;;15.70;99.90;;;;;;5073072;28;20058;-45
2022/05/27 01:09:03;;;;;;;7.10;3.50;;;15.60;99.90;;;;;;5073077;28;20026;-46
2022/05/27 01:11:56;;;;;;;5.75;1.80;;;15.60;99.90;;;;;;5073382;28;20052;-45
2022/05/27 01:15:20;;;;;;;4.40;1.80;;;15.60;99.90;;;;;;5072861;28;20120;-46
2022/05/27 01:18:22;;;;;;;3.75;2.10;;;15.50;99.90;;;;;;4975392;28;20119;-45
2022/05/27 01:21:02;;;;;;;5.78;1.98;;;15.50;99.90;;;;;;5073060;28;20484;-44
2022/05/27 01:23:57;;;;;;;2.78;1.67;;;15.40;99.90;;;;;;5073190;28;20090;-43
2022/05/27 01:26:52;;;;;;;3.00;1.73;;;15.40;99.90;;;;;;5072289;28;20488;-45
2022/05/27 01:29:47;;;;;;;5.88;1.88;;;15.40;99.90;;;;;;5072706;28;20110;-44
2022/05/27 01:32:19;;;;;;;5.05;1.70;;;15.40;99.90;;;;;;5073059;28;20031;-43
2022/05/27 01:35:22;;;;;;;5.03;1.80;;;15.40;99.90;;;;;;5072904;28;20020;-44
2022/05/27 01:38:04;;;;;;;3.30;1.70;;;15.30;99.90;;;;;;5072340;28;20028;-43
2022/05/27 01:40:45;;;;;;;6.00;2.00;;;15.40;99.90;;;;;;5072248;28;20107;-43
2022/05/27 01:43:19;;;;;;;4.05;2.35;;;15.40;99.90;;;;;;5072576;28;20404;-45
2022/05/27 01:45:57;;;;;;;5.65;1.75;;;15.40;99.90;;;;;;5072494;28;20031;-45
2022/05/27 01:48:43;;;;;;;2.92;1.85;;;15.40;99.90;;;;;;5072560;28;20031;-47
2022/05/27 01:51:21;;;;;;;7.38;2.50;;;15.40;99.90;;;;;;5072737;28;20020;-43
2022/05/27 01:53:56;;;;;;;4.47;3.05;;;15.30;99.90;;;;;;5072209;28;20020;-43
2022/05/27 01:56:44;;;;;;;8.93;2.05;;;15.30;99.90;;;;;;5072592;28;20078;-43
2022/05/27 01:59:19;;;;;;;7.50;1.98;;;15.30;99.90;;;;;;5073190;28;20035;-44
2022/05/27 02:01:51;;;;;;;3.80;2.05;;;15.20;99.90;;;;;;5073160;28;20021;-44
2022/05/27 02:04:36;;;;;;;5.25;1.70;;;15.20;99.90;;;;;;5070721;28;20035;-44
2022/05/27 02:07:08;;;;;;;8.47;2.07;;;15.10;99.90;;;;;;5071837;28;20437;-44
2022/05/27 02:09:45;;;;;;;5.85;2.22;;;15.10;99.90;;;;;;5072827;28;20066;-46
2022/05/27 02:12:20;;;;;;;2.92;1.85;;;15.00;99.90;;;;;;5072374;28;20071;-43
2022/05/27 02:14:51;;;;;;;;;;;15.00;99.90;;;;;;5072524;28;20512;-44
2022/05/27 02:17:24;;;;;;;3.60;2.00;;;14.90;99.90;;;;;;5072263;28;19972;-44
2022/05/27 02:19:52;;;;;;;5.53;2.45;;;14.90;99.90;;;;;;5072218;28;20024;-45
2022/05/27 02:22:24;;;;;;;5.85;2.00;;;14.90;99.90;;;;;;5071813;28;20515;-43
2022/05/27 02:25:00;;;;;;;4.45;2.20;;;14.90;99.90;;;;;;5072155;28;20040;-44
2022/05/27 02:27:27;;;;;;;3.38;2.40;;;15.00;99.90;;;;;;5072277;28;20020;-43
2022/05/27 02:29:58;;;;;;;3.63;1.80;;;15.00;99.90;;;;;;5072223;28;20067;-42
2022/05/27 02:32:40;;;;;;;6.78;2.15;;;15.00;99.90;;;;;;5072135;28;20024;-43
2022/05/27 02:35:23;;;;;;;3.08;2.00;;;15.10;99.90;;;;;;5071971;28;20075;-43
2022/05/27 02:37:54;;;;;;;2.80;1.83;;;15.10;99.90;;;;;;5071709;28;20029;-47
2022/05/27 02:40:28;;;;;;;5.28;2.35;;;15.20;99.90;;;;;;5072267;28;20399;-43
2022/05/27 02:43:07;;;;;;;8.18;2.50;;;15.30;99.90;;;;;;5071903;28;20040;-44
2022/05/27 02:45:51;;;;;;;5.95;2.28;;;15.30;99.90;;;;;;5071764;28;20031;-44
2022/05/27 02:48:31;;;;;;;4.60;2.35;;;15.30;99.90;;;;;;5071637;28;20365;-45
2022/05/27 02:51:20;;;;;;;4.07;2.40;;;15.30;99.90;;;;;;5071871;28;20109;-45
2022/05/27 02:54:02;;;;;;;5.75;2.60;;;15.30;99.90;;;;;;5071902;28;20104;-43
2022/05/27 02:56:33;;;;;;;5.88;2.30;;;15.20;99.90;;;;;;5072278;28;20051;-43
2022/05/27 02:59:00;;;;;;;5.88;2.20;;;15.20;99.90;;;;;;5071961;28;20025;-43
2022/05/27 03:01:25;;;;;;;5.95;2.53;;;15.10;99.90;;;;;;5071563;28;20023;-45
2022/05/27 03:03:51;;;;;;;3.08;2.35;;;15.20;99.90;;;;;;5073078;28;20506;-46
2022/05/27 03:06:27;;;;;;;5.15;2.40;;;15.20;99.90;;;;;;5071755;28;20499;-46
2022/05/27 03:09:01;;;;;;;4.90;2.67;;;15.10;99.90;;;;;;5071320;28;20040;-43
2022/05/27 03:11:47;;;;;;;18.02;9.85;;;15.10;99.90;;;;;;5070874;28;20024;-44
2022/05/27 03:14:22;;;;;;;10.63;4.85;;;15.10;99.90;;;;;;5072098;28;20511;-45
2022/05/27 03:17:16;;;;;;;3.88;3.03;;;15.10;99.90;;;;;;5071679;28;20044;-42
2022/05/27 03:19:44;;;;;;;4.13;2.50;;;15.10;99.90;;;;;;5072429;28;20377;-44
2022/05/27 03:22:40;;;;;;;3.50;2.55;;;15.10;99.90;;;;;;5071375;28;20032;-41
2022/05/27 03:25:23;;;;;;;4.10;2.80;;;15.20;99.90;;;;;;5071886;28;20036;-43
2022/05/27 03:28:25;;;;;;;5.20;2.53;;;15.20;99.90;;;;;;5071640;28;20535;-43
2022/05/27 03:31:07;;;;;;;9.27;2.92;;;15.10;99.90;;;;;;5071479;28;20392;-44
2022/05/27 03:33:53;;;;;;;5.45;2.95;;;15.20;99.90;;;;;;5071693;28;20021;-44
2022/05/27 03:36:34;;;;;;;6.50;3.10;;;15.30;99.90;;;;;;5071747;28;20032;-49
2022/05/27 03:39:13;;;;;;;3.58;2.92;;;15.20;99.90;;;;;;5071676;28;20048;-44
2022/05/27 03:41:45;;;;;;;5.03;2.72;;;15.20;99.90;;;;;;5071345;28;20050;-43
2022/05/27 03:44:20;;;;;;;6.38;3.60;;;15.20;99.90;;;;;;5071406;28;20488;-43
2022/05/27 03:46:49;;;;;;;6.32;3.30;;;15.20;99.90;;;;;;5071808;28;20439;-41
2022/05/27 03:49:14;;;;;;;4.90;3.30;;;15.30;99.90;;;;;;5074209;28;20021;-45
2022/05/27 03:51:56;;;;;;;5.57;4.70;;;15.30;99.90;;;;;;5075233;28;20028;-44
2022/05/27 03:54:22;;;;;;;8.50;3.35;;;15.30;99.90;;;;;;5075003;28;20514;-45
2022/05/27 03:56:48;;;;;;;5.80;3.88;;;15.30;99.90;;;;;;5074910;28;20028;-47
2022/05/27 03:59:15;;;;;;;7.90;4.70;;;15.30;99.90;;;;;;5075085;28;20055;-46
2022/05/27 04:01:43;;;;;;;8.25;3.45;;;15.30;99.90;;;;;;5074933;28;20028;-44
2022/05/27 04:04:11;;;;;;;5.03;3.22;;;15.30;99.90;;;;;;5074751;28;20028;-43
2022/05/27 04:06:37;;;;;;;7.28;3.40;;;15.30;99.90;;;;;;5074915;28;20017;-43
2022/05/27 04:09:04;;;;;;;4.07;3.70;;;15.30;99.90;;;;;;5074662;28;20085;-44
2022/05/27 04:11:30;;;;;;;4.45;3.53;;;15.40;99.90;;;;;;5074703;28;20373;-46
2022/05/27 04:13:56;;;;;;;6.50;3.55;;;15.30;99.90;;;;;;5074188;28;20047;-44
2022/05/27 04:16:23;;;;;;;6.95;3.78;;;15.30;99.90;;;;;;5074900;28;20020;-44
2022/05/27 04:18:48;;;;;;;4.88;3.70;;;15.30;99.90;;;;;;5074484;28;20075;-43
2022/05/27 04:21:14;;;;;;;10.75;3.53;;;15.30;99.90;;;;;;5074290;28;20056;-45
2022/05/27 04:23:39;;;;;;;4.72;3.70;;;15.30;99.90;;;;;;5074032;28;20550;-44
2022/05/27 04:26:06;;;;;;;6.25;3.30;;;15.40;99.90;;;;;;5074487;28;20036;-45
2022/05/27 04:28:32;;;;;;;4.72;3.50;;;15.40;99.90;;;;;;5075008;28;20017;-44
2022/05/27 04:30:57;;;;;;;6.65;3.55;;;15.50;99.90;;;;;;5074485;28;20396;-43
2022/05/27 04:33:23;;;;;;;8.00;3.95;;;15.60;99.90;;;;;;5074168;28;20070;-45
2022/05/27 04:35:48;;;;;;;5.68;3.28;;;15.80;99.90;;;;;;5072829;28;20025;-46
2022/05/27 04:38:14;;;;;;;7.32;3.42;;;15.90;99.90;;;;;;5073224;28;20048;-44
2022/05/27 04:40:40;;;;;;;4.90;3.40;;;16.00;99.90;;;;;;5074071;28;20033;-42
2022/05/27 04:43:06;;;;;;;5.18;2.90;;;15.90;99.90;;;;;;5073874;28;20074;-46
2022/05/27 04:45:33;;;;;;;5.45;2.70;;;15.90;99.90;;;;;;5073670;28;20033;-45
2022/05/27 04:47:58;;;;;;;3.45;2.78;;;15.90;99.90;;;;;;5073978;28;20099;-43
2022/05/27 04:50:24;;;;;;;2.80;2.60;;;15.90;99.90;;;;;;5073890;28;20158;-45
2022/05/27 04:52:50;;;;;;;5.00;2.85;;;15.90;99.90;;;;;;5073478;28;20370;-44
2022/05/27 04:55:17;;;;;;;5.53;2.70;;;15.90;99.90;;;;;;5073934;28;20476;-46
2022/05/27 04:57:47;;;;;;;5.35;2.95;;;16.00;99.90;;;;;;5072665;28;20501;-44
2022/05/27 05:00:20;;;;;;;2.50;2.15;;;16.10;99.90;;;;;;5072628;28;20503;-43
2022/05/27 05:02:46;;;;;;;4.47;3.00;;;16.10;99.90;;;;;;5073742;28;20028;-44
2022/05/27 05:05:15;;;;;;;6.43;2.70;;;16.10;99.90;;;;;;5073575;28;20086;-47
2022/05/27 05:07:41;;;;;;;4.32;2.55;;;16.10;99.90;;;;;;5073530;28;20024;-43
2022/05/27 05:10:12;;;;;;;4.88;2.20;;;16.10;99.90;;;;;;5073959;28;20025;-44
2022/05/27 05:12:38;;;;;;;5.30;2.53;;;16.20;99.90;;;;;;5073576;28;20028;-42
2022/05/27 05:15:03;;;;;;;3.53;2.70;;;16.30;99.90;;;;;;5072527;28;20492;-45
2022/05/27 05:17:29;;;;;;;4.35;2.63;;;16.50;99.90;;;;;;5073285;28;20031;-43
2022/05/27 05:19:55;;;;;;;4.95;2.60;;;16.70;99.90;;;;;;5073854;28;20037;-42
2022/05/27 05:22:22;;;;;;;4.28;2.40;;;16.80;99.90;;;;;;5074338;28;20120;-43
2022/05/27 05:24:48;;;;;;;4.57;2.50;;;16.90;99.90;;;;;;5073241;28;20028;-46
2022/05/27 05:27:14;;;;;;;2.92;2.70;;;16.90;99.90;;;;;;5074970;28;20388;-44
2022/05/27 05:29:40;;;;;;;3.42;2.17;;;17.00;99.90;;;;;;5073793;28;20024;-45
2022/05/27 05:32:06;;;;;;;2.10;2.00;;;17.00;99.90;;;;;;5073708;28;20032;-44
2022/05/27 05:34:31;;;;;;;3.20;1.75;;;17.00;99.90;;;;;;5073707;28;20051;-50
2022/05/27 05:36:57;;;;;;;2.58;2.30;;;17.10;99.90;;;;;;5075691;28;20606;-44
2022/05/27 05:39:23;;;;;;;5.45;2.83;;;17.40;99.90;;;;;;5073427;28;20024;-44
2022/05/27 05:42:00;;;;;;;3.00;1.70;;;17.60;99.90;;;;;;5073548;28;20032;-43
2022/05/27 05:44:26;;;;;;;2.55;1.75;;;17.80;99.90;;;;;;5073374;28;20036;-45
2022/05/27 05:46:53;;;;;;;5.78;2.05;;;17.90;99.90;;;;;;5073395;28;20158;-50
2022/05/27 05:49:18;;;;;;;4.47;2.33;;;17.90;99.90;;;;;;5072267;28;20024;-45
2022/05/27 05:51:44;;;;;;;2.03;1.70;;;17.90;99.90;;;;;;5072821;28;20573;-44
2022/05/27 05:54:10;;;;;;;1.92;1.75;;;18.00;99.90;;;;;;5072149;28;20086;-44
2022/05/27 05:56:35;;;;;;;6.50;1.98;;;18.00;99.90;;;;;;5072832;28;20032;-44
2022/05/27 05:59:01;;;;;;;2.92;1.85;;;17.90;99.90;;;;;;5071126;28;20032;-43
2022/05/27 06:01:27;;;;;;;3.17;1.83;;;17.90;99.90;;;;;;5072047;28;20025;-47
2022/05/27 06:03:53;;;;;;;2.47;1.88;;;17.90;99.90;;;;;;5072309;28;20066;-46
2022/05/27 06:06:18;;;;;;;1.83;1.70;;;17.90;99.90;;;;;;5071288;28;20598;-43
2022/05/27 06:08:44;;;;;;;5.80;1.80;;;17.80;99.90;;;;;;5072660;28;20021;-41
2022/05/27 06:11:09;;;;;;;3.83;1.80;;;17.60;99.90;;;;;;5073575;28;20082;-48
2022/05/27 06:13:41;;;;;;;3.22;1.67;;;17.40;99.90;;;;;;5070594;28;20059;-44
2022/05/27 06:16:09;;;;;;;3.03;2.03;;;17.30;99.90;;;;;;5071513;28;20074;-43
2022/05/27 06:18:35;;;;;;;4.72;2.47;;;17.20;99.90;;;;;;5069890;28;20123;-45
2022/05/27 06:21:00;;;;;;;4.65;2.00;;;17.10;99.90;;;;;;5071786;28;20060;-44
2022/05/27 06:23:29;;;;;;;5.85;2.00;;;17.10;99.90;;;;;;5073023;28;20424;-44
2022/05/27 06:26:05;;;;;;;2.45;1.75;;;17.00;99.90;;;;;;5072511;28;20035;-42
2022/05/27 06:36:44;;;;;;;4.78;1.90;;;16.90;99.90;;;;;;5072589;28;20074;-46
2022/05/27 06:39:10;;;;;;;2.33;1.98;;;16.90;99.90;;;;;;5073274;28;20016;-44
2022/05/27 06:41:36;;;;;;;3.30;2.03;;;16.90;99.90;;;;;;5073389;28;20024;-44
2022/05/27 06:44:03;;;;;;;1.52;1.42;;;16.90;99.90;;;;;;5072834;28;20028;-42
2022/05/27 06:46:29;;;;;;;2.20;2.00;;;16.90;99.90;;;;;;5073480;28;20021;-42
2022/05/27 06:48:55;;;;;;;4.45;1.88;;;16.90;99.90;;;;;;5073342;28;20294;-44
2022/05/27 06:51:21;;;;;;;4.95;2.17;;;17.00;99.90;;;;;;5073916;28;20461;-44
2022/05/27 06:53:47;;;;;;;5.35;2.45;;;17.00;99.90;;;;;;5071792;28;20151;-41
2022/05/27 06:56:13;;;;;;;2.80;2.20;;;17.10;99.90;;;;;;5073379;28;20034;-44
2022/05/27 06:58:40;;;;;;;2.80;2.42;;;17.10;99.90;;;;;;5072829;28;20025;-46
2022/05/27 07:01:06;;;;;;;1.80;1.70;;;17.10;99.90;;;;;;5066534;28;20098;-47
2022/05/27 07:03:32;;;;;;;4.28;2.72;;;17.10;99.90;;;;;;5072113;28;20060;-44
2022/05/27 07:05:58;;;;;;;1.95;1.85;;;17.10;99.90;;;;;;5071093;28;20024;-42
2022/05/27 07:08:23;;;;;;;2.40;2.20;;;17.10;99.90;;;;;;5071683;28;20466;-43
2022/05/27 07:10:49;;;;;;;1.90;1.80;;;17.10;99.90;;;;;;5072675;28;20028;-43
2022/05/27 07:13:14;;;;;;;3.17;2.40;;;17.10;99.90;;;;;;5072717;28;20069;-43
2022/05/27 07:15:41;;;;;;;4.00;2.13;;;17.10;99.90;;;;;;5072868;28;20028;-43
2022/05/27 07:18:08;;;;;;;4.32;1.95;;;17.00;99.90;;;;;;5073082;28;20043;-43
2022/05/27 07:20:36;;;;;;;2.50;1.92;;;17.00;99.90;;;;;;5072858;28;20055;-45
2022/05/27 07:23:03;;;;;;;3.20;2.08;;;17.00;99.90;;;;;;5073389;28;20450;-43
2022/05/27 07:25:28;;;;;;;5.90;1.95;;;17.00;99.90;;;;;;5075854;28;20111;-40
2022/05/27 07:27:54;;;;;;;2.50;2.08;;;17.00;99.90;;;;;;5075790;28;20543;-47
2022/05/27 07:30:19;;;;;;;2.50;1.77;;;17.00;99.90;;;;;;5075802;28;20099;-47
2022/05/27 07:32:45;;;;;;;6.93;2.03;;;17.00;99.90;;;;;;5075545;28;20054;-42
2022/05/27 07:35:11;;;;;;;3.33;1.80;;;17.00;99.90;;;;;;5075750;28;20116;-43
2022/05/27 07:37:37;;;;;;;4.30;1.80;;;17.00;99.90;;;;;;5075063;28;20500;-43
2022/05/27 07:40:03;;;;;;;2.53;1.67;;;17.00;99.90;;;;;;5074414;28;20031;-45
2022/05/27 07:42:28;;;;;;;4.15;1.95;;;17.00;99.90;;;;;;5073954;28;20020;-41
2022/05/27 07:44:54;;;;;;;2.45;2.25;;;17.00;99.90;;;;;;5075083;28;20078;-41
2022/05/27 07:47:20;;;;;;;7.30;1.70;;;17.00;99.90;;;;;;5074672;28;20025;-46
2022/05/27 07:49:45;;;;;;;4.88;1.65;;;17.00;99.90;;;;;;5075356;28;20032;-42
2022/05/27 07:52:11;;;;;;;2.70;1.60;;;17.10;99.90;;;;;;5075012;28;20372;-43
2022/05/27 07:54:36;;;;;;;1.90;1.63;;;17.10;99.90;;;;;;5075444;28;20037;-43
2022/05/27 07:57:03;;;;;;;4.70;1.70;;;17.10;99.90;;;;;;5072920;28;20463;-46
2022/05/27 07:59:29;;;;;;;4.28;1.73;;;17.10;99.90;;;;;;5073851;28;20123;-43
2022/05/27 08:01:54;;;;;;;6.13;1.60;;;17.20;99.90;;;;;;5074876;28;20381;-43
2022/05/27 08:04:20;;;;;;;3.95;1.70;;;17.20;99.90;;;;;;5074237;28;20029;-43
2022/05/27 08:06:46;;;;;;;4.25;1.80;;;17.30;99.90;;;;;;5074690;28;20506;-44
2022/05/27 08:09:13;;;;;;;4.50;1.50;;;17.30;99.90;;;;;;5074634;28;20027;-43
2022/05/27 08:11:39;;;;;;;3.65;1.38;;;17.30;99.90;;;;;;5074635;28;20025;-43
2022/05/27 08:14:05;;;;;;;1.88;1.70;;;17.20;99.90;;;;;;5074786;28;20100;-42
2022/05/27 08:16:33;;;;;;;3.55;1.45;;;17.40;99.90;;;;;;5074564;28;20387;-41
2022/05/27 08:19:01;;;;;;;1.38;1.27;;;17.40;99.90;;;;;;5074447;28;20021;-43
2022/05/27 08:21:27;;;;;;;2.08;1.40;;;17.50;99.90;;;;;;5074411;28;20028;-42
2022/05/27 08:23:53;;;;;;;2.38;1.10;;;17.60;99.90;;;;;;5074579;28;20021;-44
2022/05/27 08:26:18;;;;;;;1.52;1.23;;;17.60;99.90;;;;;;5074702;28;20033;-46
2022/05/27 08:28:44;;;;;;;5.05;1.27;;;17.60;99.90;;;;;;5074135;28;20017;-43
2022/05/27 08:31:10;;;;;;;1.23;0.90;;;17.60;99.90;;;;;;5074449;28;20033;-43
2022/05/27 08:39:08;;;;;;;1.95;1.00;;;17.80;99.90;;;;;;5074548;28;20105;-44
2022/05/27 08:41:59;;;;;;;3.13;1.00;;;18.00;99.90;;;;;;5073828;28;20502;-42
2022/05/27 08:44:46;;;;;;;1.08;0.90;;;18.10;99.90;;;;;;5073665;28;20029;-42
2022/05/27 08:47:41;;;;;;;2.67;0.80;;;18.30;99.90;;;;;;5073811;28;20753;-42
2022/05/27 08:50:24;;;;;;;3.42;1.38;;;18.60;99.90;;;;;;5074148;28;20025;-43
2022/05/27 08:53:05;;;;;;;3.80;0.93;;;19.00;99.90;;;;;;5073474;28;20029;-43
2022/05/27 09:01:26;;;;;;;1.60;1.00;;;19.70;99.00;;;;;;5074097;28;20034;-43
2022/05/27 09:04:19;;;;;;;4.18;1.20;;;19.70;98.70;;;;;;5093434;22;20124;-43
2022/05/27 09:06:50;;;;;;;1.23;1.10;;;19.50;99.00;;;;;;5051393;28;20079;-45
2022/05/27 09:09:22;;;;;;;2.88;1.40;;;19.30;99.40;;;;;;5072854;28;20047;-44
2022/05/27 09:12:14;;;;;;;2.47;1.27;;;19.40;99.80;;;;;;5071548;28;20020;-44
2022/05/27 09:14:50;;;;;;;1.30;1.20;;;19.90;99.10;;;;;;5073006;28;20074;-44
2022/05/27 09:17:25;;;;;;;3.13;1.00;;;20.20;98.30;;;;;;5055680;28;20032;-43
2022/05/27 09:20:11;;;;;;;3.08;0.90;;;20.50;98.20;;;;;;5071669;28;20020;-45
2022/05/27 09:22:46;;;;;;;1.90;1.10;;;20.80;97.90;;;;;;5072680;28;20028;-45
2022/05/27 09:25:38;;;;;;;1.67;1.27;;;20.70;97.20;;;;;;5071443;28;20115;-45
2022/05/27 09:28:10;;;;;;;4.60;1.10;;;20.40;97.40;;;;;;5072701;28;20039;-49
2022/05/27 09:30:36;;;;;;;2.50;1.23;;;19.90;98.00;;;;;;5072759;28;20552;-44
2022/05/27 09:33:06;;;;;;;1.50;0.90;;;19.60;98.80;;;;;;5071434;28;20401;-46
2022/05/27 09:35:46;;;;;;;1.20;1.02;;;19.30;99.00;;;;;;5071422;28;20078;-46
2022/05/27 09:38:35;;;;;;;1.95;1.00;;;19.10;99.50;;;;;;5071236;28;20025;-44
2022/05/27 09:41:40;;;;;;;4.88;1.20;;;19.10;99.90;;;;;;5072191;28;20046;-43
2022/05/27 09:44:30;;;;;;;1.48;1.38;;;19.30;99.60;;;;;;5070416;28;20041;-47
2022/05/27 09:46:55;;;;;;;2.75;1.02;;;19.70;99.30;;;;;;5071285;28;20103;-47
2022/05/27 09:49:21;;;;;;;1.90;1.10;;;19.90;98.90;;;;;;5072442;28;20174;-45
2022/05/27 09:51:46;;;;;;;1.35;0.60;;;19.90;98.40;;;;;;5072180;28;20029;-44
2022/05/27 09:54:49;;;;;;;1.73;1.10;;;20.00;98.50;;;;;;5072093;28;20024;-43
2022/05/27 09:57:23;;;;;;;1.23;0.98;;;20.30;98.30;;;;;;5071370;28;20017;-45
2022/05/27 09:59:56;;;;;;;5.88;1.02;;;20.40;98.00;;;;;;5072071;28;20021;-47
2022/05/27 10:02:21;;;;;;;4.50;1.10;;;20.50;97.70;;;;;;5071999;28;20074;-47
2022/05/27 10:05:23;;;;;;;2.15;0.95;;;20.60;97.60;;;;;;5071706;28;20115;-45
2022/05/27 10:07:54;;;;;;;1.25;0.93;;;20.70;97.40;;;;;;5072006;28;20025;-46
2022/05/27 10:10:28;;;;;;;2.03;0.77;;;20.90;97.50;;;;;;5072123;28;20495;-45
2022/05/27 10:13:13;;;;;;;1.02;0.80;;;21.10;96.80;;;;;;5071913;28;20044;-44
2022/05/27 10:15:39;;;;;;;5.72;1.60;;;20.90;97.00;;;;;;5072309;28;20028;-44
2022/05/27 10:18:15;;;;;;;2.88;1.00;;;20.60;96.80;;;;;;5071905;28;20047;-50
2022/05/27 10:20:41;;;;;;;1.60;0.98;;;20.40;97.30;;;;;;5070954;28;20112;-50
2022/05/27 10:23:10;;;;;;;0.70;0.70;;;19.90;97.80;;;;;;5071492;28;20052;-50
2022/05/27 10:25:39;;;;;;;2.70;1.65;;;19.80;97.90;;;;;;5072107;28;20025;-47
2022/05/27 10:28:06;;;;;;;1.25;0.90;;;19.80;98.10;;;;;;5072088;28;20755;-49
2022/05/27 10:30:39;;;;;;;1.33;0.57;;;20.00;98.10;;;;;;5072102;28;20016;-48
2022/05/27 10:33:23;;;;;;;7.25;0.80;;;20.40;97.70;;;;;;5072100;28;20035;-48
2022/05/27 10:35:51;;;;;;;1.00;1.00;;;20.60;97.70;;;;;;5070410;28;20021;-47
2022/05/27 10:38:30;;;;;;;19.58;10.98;;;20.90;97.00;;;;;;5071562;28;20234;-48
2022/05/27 10:41:11;;;;;;;2.22;0.70;;;20.90;97.00;;;;;;5071557;28;20024;-51
2022/05/27 10:43:54;;;;;;;0.77;0.77;;;20.70;96.80;;;;;;5071684;28;20052;-48
2022/05/27 10:46:23;;;;;;;2.17;0.85;;;20.50;97.00;;;;;;5071484;28;20025;-47
2022/05/27 10:49:22;;;;;;;0.60;0.60;;;20.30;97.00;;;;;;5071574;28;20103;-50
2022/05/27 10:52:22;;;;;;;2.10;0.85;;;20.00;98.00;;;;;;5070448;28;20074;-49
2022/05/27 10:55:13;;;;;;;3.10;0.70;;;19.90;98.30;;;;;;5071223;28;20730;-49
2022/05/27 11:04:23;;;;;;;1.30;0.90;;;20.00;98.60;;;;;;5033076;28;20104;-53
2022/05/27 11:07:16;;;;;;;6.15;1.25;;;19.80;98.80;;;;;;5075320;28;20487;-50
2022/05/27 11:10:16;;;;;;;0.88;0.88;;;19.60;98.90;;;;;;5075664;28;20047;-51
2022/05/27 11:15:51;;;;;;;2.55;0.68;;;19.60;99.50;;;;;;5075404;28;20455;-47
2022/05/27 11:18:37;;;;;;;4.70;0.77;;;19.40;99.50;;;;;;5075133;28;20037;-49
2022/05/27 11:21:48;;;;;;;0.77;0.75;;;19.50;99.70;;;;;;5075301;28;20035;-51
2022/05/27 11:24:57;;;;;;;0.82;0.63;;;19.50;99.60;;;;;;5067480;28;20040;-47
2022/05/27 11:27:48;;;;;;;0.60;0.60;;;19.30;99.90;;;;;;5074814;28;20016;-49
2022/05/27 11:30:33;;;;;;;1.75;0.75;;;19.20;99.90;;;;;;5073784;28;20021;-48
2022/05/27 11:33:25;;;;;;;1.90;0.75;;;19.10;99.90;;;;;;5067461;28;20033;-47
2022/05/27 11:36:00;;;;;;;1.63;0.70;;;19.30;99.90;;;;;;5073635;28;20381;-46
2022/05/27 11:38:35;;;;;;;10.23;7.03;;;19.50;99.90;;;;;;5074878;28;20357;-49
2022/05/27 11:41:06;;;;;;;0.57;0.57;;;19.60;99.90;;;;;;5074871;28;20064;-49
2022/05/27 11:43:38;;;;;;;0.73;0.50;;;19.50;99.50;;;;;;5073212;28;20115;-49
2022/05/27 11:46:19;;;;;;;0.77;0.60;;;19.30;99.90;;;;;;5074173;28;20028;-47
2022/05/27 11:48:57;;;;;;;1.30;1.20;;;19.20;99.90;;;;;;5074389;28;20058;-44
2022/05/27 11:51:41;;;;;;;0.63;0.60;;;19.10;99.90;;;;;;5074699;28;20029;-44
2022/05/27 11:54:56;;;;;;;1.67;0.70;;;19.10;99.90;;;;;;5072544;28;20024;-51
2022/05/27 11:57:39;;;;;;;0.70;0.50;;;19.20;99.90;;;;;;4986371;28;20033;-45
2022/05/27 12:00:10;;;;;;;1.58;0.93;;;19.10;99.90;;;;;;5071414;28;20049;-46
2022/05/27 12:02:48;;;;;;;0.50;0.50;;;19.10;99.90;;;;;;5073900;28;20032;-47
2022/05/27 12:05:21;;;;;;;0.60;0.60;;;19.10;99.90;;;;;;5072835;28;20051;-48
2022/05/27 12:07:56;;;;;;;0.50;0.50;;;19.10;99.90;;;;;;5074186;28;20510;-47
2022/05/27 12:10:44;;;;;;;1.00;0.68;;;19.20;99.90;;;;;;5073303;28;20032;-46
2022/05/27 12:13:37;;;;;;;1.10;0.70;;;19.30;99.60;;;;;;5069534;28;20025;-48
2022/05/27 12:16:14;;;;;;;1.80;0.70;;;19.40;99.90;;;;;;5072554;28;20039;-50
2022/05/27 12:18:48;;;;;;;1.10;0.57;;;19.40;99.90;;;;;;5073749;28;20021;-53
2022/05/27 12:21:18;;;;;;;0.52;0.52;;;19.50;99.80;;;;;;5073943;28;20025;-47
2022/05/27 12:23:51;;;;;;;5.70;0.77;;;19.60;99.50;;;;;;5073776;28;20033;-47
2022/05/27 12:26:22;;;;;;;1.35;0.50;;;19.60;99.00;;;;;;5073559;28;20035;-50
2022/05/27 12:28:48;;;;;;;3.58;1.02;;;19.30;99.90;;;;;;5073530;28;20017;-48
2022/05/27 12:31:15;;;;;;;4.90;0.57;;;18.70;99.90;;;;;;5073859;28;20078;-46
2022/05/27 12:33:41;;;;;;;3.20;0.47;;;18.40;99.90;;;;;;5073500;28;20021;-46
2022/05/27 12:36:21;;;;;;;0.75;0.60;;;18.20;99.90;;;;;;5073741;28;20036;-47
2022/05/27 12:38:49;;;;;;;1.08;0.70;;;18.00;99.90;;;;;;5073512;28;20107;-47
2022/05/27 12:41:38;;;;;;;0.60;0.60;;;17.80;99.90;;;;;;5073767;28;20028;-46
2022/05/27 12:44:25;;;;;;;3.13;0.70;;;17.70;99.90;;;;;;5072930;28;20032;-47
2022/05/27 12:46:56;;;;;;;5.78;0.90;;;17.80;99.90;;;;;;5073344;28;20024;-49
2022/05/27 12:49:39;;;;;;;1.73;0.63;;;17.70;99.90;;;;;;5073206;28;20051;-52
2022/05/27 12:52:25;;;;;;;1.35;0.73;;;17.60;99.90;;;;;;5073229;28;20021;-49
2022/05/27 12:54:50;;;;;;;1.13;0.90;;;17.50;99.90;;;;;;5072850;28;20424;-52
2022/05/27 13:03:33;;;;;;;5.07;1.77;;;17.70;99.90;;;;;;5073345;28;20035;-48
2022/05/27 13:06:15;;;;;;;0.65;0.65;;;17.80;99.90;;;;;;5071693;28;20029;-53
2022/05/27 13:08:52;;;;;;;2.47;0.90;;;17.90;99.90;;;;;;5066928;28;20047;-50
2022/05/27 13:11:21;;;;;;;2.70;0.68;;;18.10;99.90;;;;;;5070594;28;20539;-53
2022/05/27 13:13:47;;;;;;;1.08;0.90;;;18.30;99.90;;;;;;5073189;28;20017;-48
2022/05/27 13:16:26;;;;;;;2.88;1.27;;;18.40;99.90;;;;;;5073066;28;20033;-48
2022/05/27 13:19:03;;;;;;;1.02;1.02;;;18.50;99.90;;;;;;5063345;28;20507;-47
2022/05/27 13:21:55;;;;;;;0.73;0.73;;;18.40;99.90;;;;;;5051838;28;20029;-49
2022/05/27 13:24:20;;;;;;;17.98;13.32;;;18.50;99.90;;;;;;5053143;28;20423;-55
2022/05/27 13:26:56;;;;;;;4.75;3.60;;;18.60;99.90;;;;;;5052965;28;20047;-51
2022/05/27 13:29:38;;;;;;;;;;;18.60;99.90;;;;;;5071546;28;20583;-51
2022/05/27 13:32:22;;;;;;;1.63;1.52;;;18.70;99.90;;;;;;5072177;28;19908;-50
2022/05/27 13:34:58;;;;;;;1.50;1.50;;;18.70;99.90;;;;;;5072857;28;20027;-50
2022/05/27 13:37:39;;;;;;;1.85;1.70;;;18.60;99.90;;;;;;5072587;28;20032;-54
2022/05/27 13:40:09;;;;;;;3.67;2.00;;;18.60;99.90;;;;;;5073074;28;20062;-48
2022/05/27 13:42:41;;;;;;;1.52;1.50;;;18.60;99.90;;;;;;5071998;28;20032;-51
2022/05/27 13:45:22;;;;;;;3.88;2.13;;;18.70;99.90;;;;;;5072477;28;20108;-49
2022/05/27 13:48:02;;;;;;;2.63;1.45;;;18.80;99.90;;;;;;5071447;28;20027;-49
2022/05/27 13:50:39;;;;;;;2.67;1.58;;;18.90;99.90;;;;;;5071987;28;20051;-51
2022/05/27 13:53:19;;;;;;;1.33;1.23;;;19.00;99.90;;;;;;5071617;28;20016;-48
2022/05/27 13:55:45;;;;;;;1.40;1.40;;;19.00;99.90;;;;;;5072107;28;20438;-49